Time;durP1;ratioP1;P1;durP2;ratioP2;P2;SDS_P1;SDS_P2;PMS_P1;PMS_P2;Temp;Humidity;BMP_temperature;BMP_pressure;BME280_temperature;BME280_humidity;BME280_pressure;Samples;Min_cycle;Max_cycle;Signal;HPM_P1;HPM_P2
2023/09/08 00:00:57;;;;;;;4.77;3.30;;;;;;;;;;5057999;28;20452;-69
2023/09/08 00:03:24;;;;;;;6.17;3.13;;;;;;;;;;5073555;28;20472;-68
2023/09/08 00:05:51;;;;;;;8.50;4.07;;;;;;;;;;5073022;28;20455;-68
2023/09/08 00:08:19;;;;;;;3.27;2.20;;;;;;;;;;5073475;28;20444;-68
2023/09/08 00:10:47;;;;;;;5.57;3.30;;;;;;;;;;5073437;28;20449;-68
2023/09/08 00:13:14;;;;;;;4.10;2.77;;;;;;;;;;5073162;28;20461;-69
2023/09/08 00:15:41;;;;;;;5.83;3.00;;;;;;;;;;5073761;28;20437;-68
2023/09/08 00:18:08;;;;;;;4.60;3.43;;;;;;;;;;5072886;28;20477;-68
2023/09/08 00:20:35;;;;;;;4.50;3.50;;;;;;;;;;5064719;28;20442;-69
2023/09/08 00:23:03;;;;;;;5.80;4.33;;;;;;;;;;5071096;28;20462;-68
2023/09/08 00:25:31;;;;;;;5.70;2.97;;;;;;;;;;5061959;28;20445;-68
2023/09/08 00:27:58;;;;;;;5.30;3.13;;;;;;;;;;5073291;28;20449;-68
2023/09/08 00:30:25;;;;;;;4.70;3.17;;;;;;;;;;5073293;28;20448;-69
2023/09/08 00:32:52;;;;;;;3.90;2.60;;;;;;;;;;5072980;28;20468;-68
2023/09/08 00:35:19;;;;;;;4.00;2.90;;;;;;;;;;5073494;28;20445;-68
2023/09/08 00:37:46;;;;;;;5.20;3.10;;;;;;;;;;5072484;28;21117;-69
2023/09/08 00:40:14;;;;;;;3.23;2.50;;;;;;;;;;5072482;28;20445;-68
2023/09/08 00:42:42;;;;;;;4.40;2.93;;;;;;;;;;5072256;28;20507;-68
2023/09/08 00:45:09;;;;;;;7.00;4.00;;;;;;;;;;5073363;28;20456;-69
2023/09/08 00:47:36;;;;;;;4.50;2.93;;;;;;;;;;5072153;28;20463;-68
2023/09/08 00:50:04;;;;;;;5.07;3.00;;;;;;;;;;5072911;28;20498;-68
2023/09/08 00:52:33;;;;;;;4.60;2.70;;;;;;;;;;5073003;28;20477;-68
2023/09/08 00:55:01;;;;;;;5.13;3.00;;;;;;;;;;5072417;28;20461;-69
2023/09/08 00:57:28;;;;;;;10.10;2.57;;;;;;;;;;5072153;28;20449;-69
2023/09/08 00:59:57;;;;;;;4.37;2.87;;;;;;;;;;5072137;28;20484;-69
2023/09/08 01:02:24;;;;;;;4.37;2.53;;;;;;;;;;5069467;28;20515;-68
2023/09/08 01:04:51;;;;;;;4.53;2.67;;;;;;;;;;5072484;28;20528;-69
2023/09/08 01:07:18;;;;;;;5.30;3.27;;;;;;;;;;5072568;28;20495;-69
2023/09/08 01:09:47;;;;;;;6.10;4.00;;;;;;;;;;5072886;28;20818;-68
2023/09/08 01:12:14;;;;;;;5.07;2.93;;;;;;;;;;5072353;28;20990;-68
2023/09/08 01:14:42;;;;;;;5.27;3.23;;;;;;;;;;5071128;28;20441;-68
2023/09/08 01:17:12;;;;;;;5.03;2.80;;;;;;;;;;5072492;28;20437;-68
2023/09/08 01:19:39;;;;;;;4.90;2.37;;;;;;;;;;5072219;28;20663;-68
2023/09/08 01:22:18;;;;;;;7.37;3.43;;;;;;;;;;5071748;28;20457;-68
2023/09/08 01:24:58;;;;;;;4.87;3.17;;;;;;;;;;5069595;28;20559;-69
2023/09/08 01:27:26;;;;;;;4.70;3.00;;;;;;;;;;5071782;28;20769;-69
2023/09/08 01:29:54;;;;;;;5.20;3.53;;;;;;;;;;5071408;28;20449;-68
2023/09/08 01:32:22;;;;;;;3.73;2.30;;;;;;;;;;5071774;28;20480;-68
2023/09/08 01:34:49;;;;;;;4.60;3.03;;;;;;;;;;5071798;28;20437;-68
2023/09/08 01:37:16;;;;;;;3.60;2.23;;;;;;;;;;5071718;28;20468;-69
2023/09/08 01:39:43;;;;;;;6.67;3.70;;;;;;;;;;5071852;28;20465;-69
2023/09/08 01:42:11;;;;;;;4.90;3.17;;;;;;;;;;5071718;28;20487;-69
2023/09/08 01:44:38;;;;;;;6.33;3.33;;;;;;;;;;5071391;28;20445;-68
2023/09/08 01:47:05;;;;;;;6.60;3.30;;;;;;;;;;5071850;28;20452;-68
2023/09/08 01:49:32;;;;;;;6.23;2.97;;;;;;;;;;5071135;28;20449;-68
2023/09/08 01:51:59;;;;;;;5.60;3.77;;;;;;;;;;5066567;28;20457;-68
2023/09/08 01:54:26;;;;;;;4.87;2.73;;;;;;;;;;5070818;28;20453;-68
2023/09/08 01:56:53;;;;;;;6.00;3.53;;;;;;;;;;5071439;28;20493;-68
2023/09/08 01:59:22;;;;;;;4.40;3.17;;;;;;;;;;5071865;28;20489;-69
2023/09/08 02:01:49;;;;;;;3.60;2.70;;;;;;;;;;5071128;28;20454;-69
2023/09/08 02:04:16;;;;;;;4.30;3.07;;;;;;;;;;5071367;28;20988;-69
2023/09/08 02:06:43;;;;;;;4.00;3.10;;;;;;;;;;5070206;28;20814;-69
2023/09/08 02:09:10;;;;;;;4.97;2.87;;;;;;;;;;5071713;28;20434;-69
2023/09/08 02:11:38;;;;;;;4.30;2.87;;;;;;;;;;5070503;28;20485;-69
2023/09/08 02:14:05;;;;;;;10.30;3.03;;;;;;;;;;5071262;28;20540;-68
2023/09/08 02:16:33;;;;;;;5.97;3.50;;;;;;;;;;5071765;28;20449;-69
2023/09/08 02:19:00;;;;;;;5.40;3.20;;;;;;;;;;5070767;28;20591;-69
2023/09/08 02:21:27;;;;;;;4.50;2.73;;;;;;;;;;5070931;28;20460;-69
2023/09/08 02:23:54;;;;;;;3.80;2.30;;;;;;;;;;5070972;28;20507;-68
2023/09/08 02:26:21;;;;;;;5.30;2.83;;;;;;;;;;5070158;28;20939;-69
2023/09/08 02:28:48;;;;;;;4.00;2.87;;;;;;;;;;5069816;28;20932;-68
2023/09/08 02:31:15;;;;;;;3.77;2.93;;;;;;;;;;5067947;28;20445;-69
2023/09/08 02:33:44;;;;;;;3.90;2.63;;;;;;;;;;5071446;28;20965;-69
2023/09/08 02:36:11;;;;;;;5.10;3.30;;;;;;;;;;5070941;28;20441;-68
2023/09/08 02:38:38;;;;;;;4.53;2.77;;;;;;;;;;5070567;28;20488;-69
2023/09/08 02:41:05;;;;;;;5.33;2.70;;;;;;;;;;5070769;28;21002;-69
2023/09/08 02:43:32;;;;;;;4.23;2.50;;;;;;;;;;5070369;28;20452;-69
2023/09/08 02:45:59;;;;;;;4.47;2.83;;;;;;;;;;5070319;28;20839;-68
2023/09/08 02:48:26;;;;;;;6.27;4.37;;;;;;;;;;5069959;28;20446;-69
2023/09/08 02:50:54;;;;;;;4.80;2.73;;;;;;;;;;5066431;28;20541;-68
2023/09/08 02:53:21;;;;;;;6.50;3.83;;;;;;;;;;5059975;28;20529;-69
2023/09/08 02:55:48;;;;;;;4.70;3.23;;;;;;;;;;5070881;28;20456;-69
2023/09/08 02:58:15;;;;;;;4.90;3.23;;;;;;;;;;5070441;28;20816;-68
2023/09/08 03:00:43;;;;;;;4.17;2.80;;;;;;;;;;5070108;28;20519;-68
2023/09/08 03:03:10;;;;;;;4.67;3.60;;;;;;;;;;5070713;28;20457;-69
2023/09/08 03:05:37;;;;;;;5.60;3.33;;;;;;;;;;5069362;28;20516;-68
2023/09/08 03:08:06;;;;;;;4.40;2.83;;;;;;;;;;5070945;28;20473;-68
2023/09/08 03:10:34;;;;;;;5.80;3.10;;;;;;;;;;5068903;28;20446;-69
2023/09/08 03:13:01;;;;;;;6.60;3.10;;;;;;;;;;5070707;28;20561;-69
2023/09/08 03:15:28;;;;;;;5.40;3.40;;;;;;;;;;5070027;28;20441;-69
2023/09/08 03:17:55;;;;;;;4.73;2.90;;;;;;;;;;5070485;28;20452;-68
2023/09/08 03:20:22;;;;;;;5.10;3.37;;;;;;;;;;5068045;28;20469;-68
2023/09/08 03:22:49;;;;;;;5.27;3.23;;;;;;;;;;5069019;28;20975;-68
2023/09/08 03:25:18;;;;;;;4.63;3.13;;;;;;;;;;5070860;28;20448;-69
2023/09/08 03:27:45;;;;;;;4.27;2.57;;;;;;;;;;5070516;28;20800;-69
2023/09/08 03:30:12;;;;;;;4.00;2.23;;;;;;;;;;5070478;28;20436;-69
2023/09/08 03:32:39;;;;;;;3.83;2.33;;;;;;;;;;5070099;28;20514;-68
2023/09/08 03:35:07;;;;;;;5.07;2.90;;;;;;;;;;5069869;28;20437;-68
2023/09/08 03:37:34;;;;;;;4.67;2.87;;;;;;;;;;5072429;28;20444;-68
2023/09/08 03:40:01;;;;;;;4.40;2.50;;;;;;;;;;5072389;28;20499;-68
2023/09/08 03:42:30;;;;;;;5.13;3.10;;;;;;;;;;5074189;28;20472;-68
2023/09/08 03:44:57;;;;;;;4.07;2.83;;;;;;;;;;5074123;28;20437;-68
2023/09/08 03:47:24;;;;;;;5.73;2.63;;;;;;;;;;5073910;28;20445;-68
2023/09/08 03:49:51;;;;;;;6.17;3.13;;;;;;;;;;5071981;28;20437;-69
2023/09/08 03:52:18;;;;;;;3.70;2.50;;;;;;;;;;5063987;28;20460;-68
2023/09/08 03:54:46;;;;;;;8.37;3.43;;;;;;;;;;5072702;28;20958;-68
2023/09/08 03:57:13;;;;;;;4.37;2.80;;;;;;;;;;5071349;28;20970;-68
2023/09/08 03:59:42;;;;;;;4.60;2.53;;;;;;;;;;5073334;28;20477;-68
2023/09/08 04:02:09;;;;;;;5.50;3.50;;;;;;;;;;5072955;28;20464;-68
2023/09/08 04:04:36;;;;;;;5.03;2.70;;;;;;;;;;5072749;28;20840;-68
2023/09/08 04:07:03;;;;;;;4.50;2.80;;;;;;;;;;5073022;28;20452;-68
2023/09/08 04:09:31;;;;;;;5.63;3.77;;;;;;;;;;5073160;28;20437;-68
2023/09/08 04:11:58;;;;;;;4.60;2.80;;;;;;;;;;5072555;28;20468;-68
2023/09/08 04:14:27;;;;;;;3.53;2.77;;;;;;;;;;5071812;28;20571;-69
2023/09/08 04:16:55;;;;;;;5.73;3.27;;;;;;;;;;5072508;28;20943;-68
2023/09/08 04:19:22;;;;;;;4.30;3.00;;;;;;;;;;5073399;28;20484;-69
2023/09/08 04:21:49;;;;;;;5.53;3.23;;;;;;;;;;5071410;28;20461;-69
2023/09/08 04:24:16;;;;;;;3.53;2.53;;;15.30;99.90;;;;;;5073247;28;20449;-67
2023/09/08 04:26:43;;;;;;;4.40;2.73;;;15.00;99.90;;;;;;5072937;28;20509;-65
2023/09/08 04:29:09;;;;;;;4.10;2.20;;;14.70;99.90;;;;;;5072974;28;20452;-67
2023/09/08 04:31:36;;;;;;;4.37;2.80;;;14.90;99.90;;;;;;5071729;28;20461;-67
2023/09/08 04:34:04;;;;;;;6.60;3.50;;;14.60;99.90;;;;;;5072510;28;20503;-67
2023/09/08 04:36:31;;;;;;;5.40;3.10;;;14.50;99.90;;;;;;5072336;28;20444;-67
2023/09/08 04:38:57;;;;;;;6.07;3.50;;;14.50;99.90;;;;;;5063532;28;20466;-67
2023/09/08 04:41:24;;;;;;;5.97;3.53;;;14.50;99.90;;;;;;5070853;28;20947;-66
2023/09/08 04:43:51;;;;;;;4.43;3.10;;;14.50;99.90;;;;;;5073023;28;20819;-67
2023/09/08 04:46:18;;;;;;;5.03;2.93;;;;;;;;;;5073411;28;20552;-66
2023/09/08 04:48:45;;;;;;;6.03;3.53;;;;;;;;;;5071046;28;20507;-67
2023/09/08 04:51:13;;;;;;;3.40;2.20;;;;;;;;;;5064743;28;20445;-67
2023/09/08 04:53:40;;;;;;;4.97;2.97;;;;;;;;;;5072064;28;20514;-67
2023/09/08 04:56:07;;;;;;;4.20;2.83;;;;;;;;;;5071811;28;20955;-66
2023/09/08 04:58:34;;;;;;;3.90;2.87;;;;;;;;;;5072699;28;20448;-66
2023/09/08 05:01:01;;;;;;;5.07;2.90;;;;;;;;;;5072872;28;20480;-67
2023/09/08 05:03:30;;;;;;;5.47;2.83;;;;;;;;;;5072644;28;20438;-66
2023/09/08 05:05:57;;;;;;;4.40;2.60;;;;;;;;;;5070632;28;20962;-66
2023/09/08 05:08:25;;;;;;;5.57;3.70;;;;;;;;;;5071349;28;20438;-66
2023/09/08 05:10:52;;;;;;;6.33;3.73;;;;;;;;;;5063576;28;20437;-66
2023/09/08 05:13:22;;;;;;;4.87;3.10;;;;;;;;;;5071545;28;20959;-65
2023/09/08 05:15:49;;;;;;;5.60;3.00;;;;;;;;;;5062814;28;20442;-66
2023/09/08 05:18:16;;;;;;;6.60;3.80;;;;;;;;;;5071878;28;20989;-66
2023/09/08 05:20:43;;;;;;;3.90;2.27;;;;;;;;;;5070627;28;20487;-66
2023/09/08 05:23:10;;;;;;;6.20;3.40;;;;;;;;;;5072466;28;20622;-66
2023/09/08 05:25:39;;;;;;;4.30;2.90;;;;;;;;;;5072074;28;20444;-65
2023/09/08 05:28:06;;;;;;;5.43;3.00;;;;;;;;;;5070780;28;20464;-66
2023/09/08 05:30:33;;;;;;;6.20;3.43;;;;;;;;;;5072451;28;20460;-66
2023/09/08 05:33:00;;;;;;;4.17;3.10;;;;;;;;;;5070975;28;20462;-66
2023/09/08 05:35:27;;;;;;;5.43;3.10;;;;;;;;;;5071519;28;20567;-66
2023/09/08 05:37:54;;;;;;;5.23;3.00;;;;;;;;;;5072165;28;20483;-66
2023/09/08 05:40:24;;;;;;;6.23;3.83;;;;;;;;;;5071946;28;20540;-66
2023/09/08 05:42:53;;;;;;;7.87;3.83;;;;;;;;;;5072075;28;20983;-66
2023/09/08 05:45:20;;;;;;;5.57;3.07;;;;;;;;;;5071454;28;20434;-68
2023/09/08 05:47:47;;;;;;;8.20;3.73;;;;;;;;;;5071588;28;20485;-69
2023/09/08 05:50:14;;;;;;;5.40;3.00;;;;;;;;;;5066608;28;20438;-68
2023/09/08 05:52:41;;;;;;;5.17;4.17;;;;;;;;;;5066887;28;20833;-68
2023/09/08 05:55:08;;;;;;;4.33;3.40;;;;;;;;;;5071599;28;20460;-68
2023/09/08 05:57:36;;;;;;;6.13;3.40;;;;;;;;;;5071565;28;20445;-69
2023/09/08 06:00:05;;;;;;;5.87;3.60;;;;;;;;;;5070839;28;20477;-69
2023/09/08 06:02:32;;;;;;;7.23;4.37;;;;;;;;;;5071101;28;20461;-69
2023/09/08 06:04:59;;;;;;;6.47;3.73;;;;;;;;;;5071031;28;20452;-69
2023/09/08 06:07:26;;;;;;;7.70;3.97;;;;;;;;;;5071540;28;20441;-68
2023/09/08 06:09:53;;;;;;;5.20;3.60;;;;;;;;;;5071794;28;20821;-69
2023/09/08 06:12:20;;;;;;;6.00;4.10;;;;;;;;;;5070836;28;20464;-69
2023/09/08 06:14:47;;;;;;;4.90;3.37;;;;;;;;;;5071727;28;20444;-69
2023/09/08 06:17:16;;;;;;;8.60;4.87;;;;;;;;;;5071698;28;20496;-68
2023/09/08 06:19:43;;;;;;;6.47;4.13;;;;;;;;;;5069924;28;20445;-68
2023/09/08 06:22:10;;;;;;;7.23;4.20;;;;;;;;;;5069887;28;21003;-68
2023/09/08 06:24:37;;;;;;;6.17;4.00;;;;;;;;;;5071572;28;20503;-68
2023/09/08 06:27:04;;;;;;;10.17;4.87;;;;;;;;;;5070801;28;20984;-69
2023/09/08 06:29:31;;;;;;;5.10;3.20;;;;;;;;;;5068461;28;20429;-68
2023/09/08 06:31:58;;;;;;;7.00;4.00;;;;;;;;;;5070500;28;20449;-68
2023/09/08 06:34:26;;;;;;;6.10;4.80;;;;;;;;;;5071212;28;20484;-69
2023/09/08 06:36:54;;;;;;;6.40;4.40;;;;;;;;;;5071333;28;20511;-68
2023/09/08 06:39:21;;;;;;;6.23;4.70;;;;;;;;;;5069920;28;20437;-68
2023/09/08 06:41:48;;;;;;;5.87;4.20;;;;;;;;;;5057930;28;20481;-69
2023/09/08 06:44:15;;;;;;;7.73;4.40;;;;;;;;;;5070667;28;20548;-68
2023/09/08 06:46:42;;;;;;;7.10;4.10;;;;;;;;;;5071402;28;20442;-68
2023/09/08 06:49:09;;;;;;;5.70;4.20;;;;;;;;;;5071270;28;20468;-68
2023/09/08 06:51:38;;;;;;;6.90;4.87;;;;;;;;;;5070052;28;20468;-69
2023/09/08 06:54:05;;;;;;;7.03;4.47;;;;;;;;;;5070773;28;20461;-68
2023/09/08 06:56:32;;;;;;;7.40;4.73;;;;;;;;;;5070440;28;20445;-68
2023/09/08 06:59:00;;;;;;;7.73;4.70;;;;;;;;;;5070050;28;20446;-69
2023/09/08 07:01:27;;;;;;;6.60;4.07;;;;;;;;;;5070538;28;20511;-68
2023/09/08 07:03:54;;;;;;;6.33;3.80;;;;;;;;;;5070295;28;20457;-68
2023/09/08 07:06:22;;;;;;;9.13;5.20;;;;;;;;;;5071296;28;20445;-69
2023/09/08 07:08:51;;;;;;;5.43;4.03;;;;;;;;;;5068161;28;20480;-68
2023/09/08 07:11:18;;;;;;;6.60;4.80;;;;;;;;;;5072520;28;20465;-68
2023/09/08 07:13:45;;;;;;;5.50;3.70;;;;;;;;;;5074657;28;20434;-69
2023/09/08 07:16:12;;;;;;;6.40;4.67;;;;;;;;;;5073944;28;20433;-68
2023/09/08 07:18:39;;;;;;;7.20;4.10;;;;;;;;;;5073670;28;20433;-67
2023/09/08 07:21:06;;;;;;;6.70;4.10;;;;;;;;;;5072064;28;21002;-68
2023/09/08 07:23:35;;;;;;;6.03;4.23;;;;;;;;;;5074764;28;20569;-68
2023/09/08 07:26:03;;;;;;;6.07;4.70;;;;;;;;;;5074251;28;20442;-68
2023/09/08 07:28:30;;;;;;;6.90;4.60;;;;;;;;;;5074544;28;20437;-69
2023/09/08 07:31:02;;;;;;;7.97;4.03;;;;;;;;;;5074368;28;20707;-69
2023/09/08 07:33:29;;;;;;;6.70;4.80;;;;;;;;;;5073617;28;20441;-68
2023/09/08 07:35:56;;;;;;;7.57;4.07;;;;;;;;;;5073917;28;20453;-68
2023/09/08 07:38:23;;;;;;;6.90;4.87;;;;;;;;;;5073712;28;20441;-68
2023/09/08 07:40:50;;;;;;;6.00;4.13;;;;;;;;;;5073838;28;20485;-68
2023/09/08 07:43:18;;;;;;;5.27;4.17;;;;;;;;;;5073930;28;20464;-68
2023/09/08 07:45:45;;;;;;;6.07;4.57;;;;;;;;;;5073872;28;20437;-68
2023/09/08 07:48:12;;;;;;;7.20;5.10;;;;;;;;;;5070187;28;20904;-68
2023/09/08 07:50:39;;;;;;;5.33;4.63;;;;;;;;;;5062663;28;20438;-68
2023/09/08 07:53:06;;;;;;;6.73;4.07;;;;;;;;;;5067339;28;20506;-67
2023/09/08 07:55:33;;;;;;;5.17;3.57;;;;;;;;;;5074038;28;20464;-68
2023/09/08 07:58:01;;;;;;;5.63;4.40;;;;;;;;;;5072651;28;20498;-68
2023/09/08 08:00:29;;;;;;;6.83;4.60;;;;;;;;;;5070875;28;20472;-67
2023/09/08 08:02:56;;;;;;;5.30;4.13;;;;;;;;;;5073896;28;20465;-69
2023/09/08 08:05:24;;;;;;;6.70;4.07;;;;;;;;;;5072129;28;20454;-69
2023/09/08 08:07:51;;;;;;;11.30;4.53;;;;;;;;;;5071559;28;20815;-68
2023/09/08 08:10:19;;;;;;;6.50;3.40;;;;;;;;;;5074112;28;20476;-68
2023/09/08 08:12:46;;;;;;;5.53;4.03;;;;;;;;;;5073501;28;20461;-68
2023/09/08 08:15:13;;;;;;;7.37;4.23;;;;;;;;;;5072963;28;20941;-69
2023/09/08 08:17:42;;;;;;;6.37;4.57;;;;;;;;;;5073205;28;20441;-68
2023/09/08 08:20:09;;;;;;;6.00;4.10;;;;;;;;;;5071340;28;20446;-69
2023/09/08 08:22:37;;;;;;;5.50;3.70;;;;;;;;;;5067738;28;20540;-68
2023/09/08 08:25:04;;;;;;;5.00;3.90;;;;;;;;;;5069715;28;20433;-68
2023/09/08 08:27:31;;;;;;;5.63;3.80;;;;;;;;;;5073546;28;20674;-68
2023/09/08 08:30:00;;;;;;;6.93;4.13;;;;;;;;;;5073331;28;20931;-69
2023/09/08 08:32:27;;;;;;;5.07;3.87;;;;;;;;;;5072970;28;21040;-69
2023/09/08 08:34:56;;;;;;;6.23;4.50;;;;;;;;;;5072994;28;20437;-69
2023/09/08 08:37:23;;;;;;;5.23;3.97;;;;;;;;;;5073035;28;20460;-69
2023/09/08 08:39:50;;;;;;;9.90;4.07;;;;;;;;;;5072790;28;20441;-68
2023/09/08 08:42:20;;;;;;;8.53;4.50;;;;;;;;;;5073289;28;20477;-68
2023/09/08 08:44:47;;;;;;;7.70;4.20;;;;;;;;;;5072970;28;21085;-69
2023/09/08 08:47:15;;;;;;;6.20;4.30;;;;;;;;;;5073083;28;20438;-68
2023/09/08 08:49:46;;;;;;;6.97;4.97;;;;;;;;;;5064048;28;20514;-69
2023/09/08 08:52:17;;;;;;;14.70;4.90;;;;;;;;;;5072321;28;20527;-69
2023/09/08 08:54:45;;;;;;;6.37;4.23;;;;;;;;;;5060395;28;20982;-68
2023/09/08 08:57:12;;;;;;;6.57;4.00;;;;;;;;;;5071651;28;20448;-69
2023/09/08 08:59:41;;;;;;;5.30;3.83;;;;;;;;;;5073080;28;20947;-69
2023/09/08 09:02:09;;;;;;;6.10;3.97;;;;;;;;;;5072902;28;20491;-69
2023/09/08 09:04:38;;;;;;;6.83;4.50;;;;;;;;;;5072736;28;20819;-69
2023/09/08 09:07:07;;;;;;;4.67;3.73;;;;;;;;;;5072320;28;20923;-69
2023/09/08 09:09:35;;;;;;;7.13;4.07;;;;;;;;;;5070817;28;20496;-69
2023/09/08 09:12:02;;;;;;;5.87;5.10;;;;;;;;;;5068174;28;20457;-69
2023/09/08 09:14:30;;;;;;;6.53;4.90;;;;;;;;;;5072884;28;20453;-68
2023/09/08 09:16:58;;;;;;;4.47;3.93;;;;;;;;;;5071332;28;20449;-69
2023/09/08 09:19:27;;;;;;;9.90;5.53;;;;;;;;;;5070930;28;20895;-69
2023/09/08 09:21:55;;;;;;;7.10;5.00;;;;;;;;;;5072154;28;20489;-69
2023/09/08 09:24:30;;;;;;;6.27;4.37;;;;;;;;;;5072950;28;21432;-69
2023/09/08 09:26:58;;;;;;;5.20;3.80;;;;;;;;;;5071974;28;20441;-69
2023/09/08 09:29:26;;;;;;;5.00;3.67;;;;;;;;;;5069735;28;20442;-69
2023/09/08 09:31:54;;;;;;;8.03;4.97;;;;;;;;;;5072090;28;20496;-69
2023/09/08 09:34:22;;;;;;;5.70;4.63;;;;;;;;;;5070643;28;20477;-69
2023/09/08 09:36:50;;;;;;;9.33;5.77;;;;;;;;;;5071261;28;20494;-69
2023/09/08 09:39:20;;;;;;;9.63;5.07;;;;;;;;;;5072030;28;20982;-69
2023/09/08 09:41:47;;;;;;;7.73;4.90;;;;;;;;;;5071829;28;20489;-69
2023/09/08 09:44:16;;;;;;;5.67;4.13;;;;;;;;;;5070891;28;20511;-69
2023/09/08 09:46:47;;;;;;;4.60;3.70;;;;;;;;;;5071130;28;20444;-69
2023/09/08 09:49:14;;;;;;;5.07;4.20;;;;;;;;;;5071492;28;20441;-69
2023/09/08 09:51:42;;;;;;;5.17;4.03;;;;;;;;;;5071830;28;20457;-69
2023/09/08 09:54:09;;;;;;;6.47;4.67;;;;;;;;;;5067004;28;20517;-68
2023/09/08 09:56:38;;;;;;;4.83;3.60;;;;;;;;;;5071289;28;20448;-69
2023/09/08 09:59:06;;;;;;;4.80;4.07;;;;;;;;;;5071856;28;20440;-68
2023/09/08 10:01:35;;;;;;;6.07;3.97;;;;;;;;;;5071428;28;20935;-69
2023/09/08 10:04:03;;;;;;;6.37;4.10;;;;;;;;;;5071492;28;20448;-69
2023/09/08 10:06:32;;;;;;;6.93;4.10;;;;;;;;;;5071266;28;20527;-69
2023/09/08 10:09:01;;;;;;;8.13;5.00;;;;;;;;;;5071902;28;20829;-68
2023/09/08 10:11:30;;;;;;;5.60;3.87;;;;;;;;;;5070174;28;20838;-69
2023/09/08 10:13:59;;;;;;;5.70;4.00;;;;;;;;;;5071152;28;20485;-69
2023/09/08 10:16:28;;;;;;;6.67;4.60;;;;;;;;;;5071420;28;20448;-69
2023/09/08 10:18:56;;;;;;;6.20;4.47;;;;;;;;;;5059765;28;20437;-69
2023/09/08 10:21:25;;;;;;;5.47;4.30;;;;;;;;;;5071100;28;20485;-69
2023/09/08 10:24:01;;;;;;;8.00;4.40;;;;;;;;;;5065658;28;20431;-69
2023/09/08 10:26:29;;;;;;;4.90;3.77;;;;;;;;;;5055275;28;20760;-69
2023/09/08 10:28:56;;;;;;;4.83;4.30;;;;;;;;;;5070485;28;20433;-69
2023/09/08 10:31:25;;;;;;;5.07;3.70;;;;;;;;;;5071249;28;20472;-69
2023/09/08 10:33:52;;;;;;;5.57;4.33;;;;;;;;;;5071370;28;20875;-70
2023/09/08 10:36:20;;;;;;;6.83;3.87;;;;;;;;;;5071772;28;20448;-69
2023/09/08 10:38:50;;;;;;;6.20;4.53;;;;;;;;;;5071069;28;20475;-70
2023/09/08 10:41:32;;;;;;;5.10;3.87;;;;;;;;;;5070775;28;20484;-69
2023/09/08 10:44:00;;;;;;;5.17;3.97;;;;;;;;;;5069449;28;20935;-69
2023/09/08 10:46:28;;;;;;;5.57;4.20;;;;;;;;;;5057604;28;20445;-69
2023/09/08 10:48:55;;;;;;;5.13;3.93;;;;;;;;;;5070587;28;20441;-69
2023/09/08 10:51:25;;;;;;;5.17;3.77;;;;;;;;;;5070561;28;20866;-69
2023/09/08 10:53:52;;;;;;;4.37;3.53;;;;;;;;;;5070954;28;20445;-69
2023/09/08 10:56:20;;;;;;;5.37;4.17;;;;;;;;;;5071418;28;20437;-69
2023/09/08 10:58:50;;;;;;;5.37;3.90;;;;;;;;;;5070842;28;20442;-69
2023/09/08 11:01:18;;;;;;;7.70;4.60;;;;;;;;;;5070755;28;20489;-69
2023/09/08 11:03:47;;;;;;;5.70;3.80;;;;;;;;;;5069897;28;20482;-69
2023/09/08 11:06:17;;;;;;;6.80;4.70;;;;;;;;;;5070605;28;20846;-69
2023/09/08 11:08:47;;;;;;;6.53;2.90;;;;;;;;;;5070516;28;21038;-68
2023/09/08 11:11:14;;;;;;;6.27;4.17;;;;;;;;;;5067382;28;20433;-69
2023/09/08 11:13:45;;;;;;;4.77;3.97;;;;;;;;;;5070979;28;20445;-69
2023/09/08 11:16:12;;;;;;;6.13;3.80;;;;;;;;;;5070514;28;20441;-70
2023/09/08 11:18:40;;;;;;;4.90;3.60;;;;;;;;;;5070648;28;20882;-69
2023/09/08 11:21:09;;;;;;;5.57;4.60;;;;;;;;;;5069434;28;20445;-69
2023/09/08 11:23:36;;;;;;;5.00;3.60;;;;;;;;;;5070311;28;20479;-69
2023/09/08 11:26:08;;;;;;;4.13;3.60;;;;;;;;;;5070305;28;20441;-69
2023/09/08 11:28:35;;;;;;;5.03;4.30;;;;;;;;;;5070771;28;20499;-69
2023/09/08 11:31:04;;;;;;;5.90;4.13;;;;;;;;;;5070837;28;20490;-69
2023/09/08 11:33:34;;;;;;;6.87;4.03;;;;;;;;;;5070757;28;20498;-69
2023/09/08 11:36:01;;;;;;;5.30;3.93;;;;;;;;;;5070583;28;20821;-69
2023/09/08 11:38:29;;;;;;;5.40;4.23;;;;;;;;;;5070769;28;20441;-68
2023/09/08 11:40:58;;;;;;;4.23;3.50;;;;;;;;;;5070103;28;20648;-69
2023/09/08 11:43:27;;;;;;;4.23;3.57;;;;;;;;;;5069349;28;20674;-68
2023/09/08 11:45:54;;;;;;;4.00;3.30;;;;;;;;;;5069757;28;20476;-69
2023/09/08 11:48:21;;;;;;;6.07;4.53;;;;;;;;;;5070903;28;20881;-69
2023/09/08 11:50:51;;;;;;;5.23;4.03;;;;;;;;;;5071092;28;20472;-69
2023/09/08 11:53:20;;;;;;;5.30;4.10;;;;;;;;;;5070186;28;21000;-67
2023/09/08 11:55:47;;;;;;;6.93;4.10;;;;;;;;;;5070421;28;20456;-68
2023/09/08 11:58:15;;;;;;;7.40;5.00;;;;;;;;;;5070191;28;20467;-69
2023/09/08 12:00:44;;;;;;;4.57;4.00;;;;;;;;;;5073865;28;20501;-68
2023/09/08 12:03:12;;;;;;;6.27;4.87;;;;;;;;;;5073483;28;20488;-68
2023/09/08 12:05:40;;;;;;;5.00;4.47;;;;;;;;;;5074559;28;20455;-69
2023/09/08 12:08:09;;;;;;;5.27;4.30;;;;;;;;;;5073676;28;20539;-69
2023/09/08 12:10:39;;;;;;;5.57;4.30;;;;;;;;;;5073870;28;20506;-68
2023/09/08 12:13:07;;;;;;;5.53;4.23;;;;;;;;;;5073836;28;20536;-68
2023/09/08 12:15:36;;;;;;;6.10;4.30;;;;;;;;;;5072176;28;20451;-69
2023/09/08 12:18:05;;;;;;;4.43;3.43;;;;;;;;;;5073297;28;20441;-68
2023/09/08 12:20:32;;;;;;;5.67;4.60;;;;;;;;;;5059659;28;20451;-68
2023/09/08 12:23:03;;;;;;;4.43;3.93;;;;;;;;;;5073770;28;20920;-72
2023/09/08 12:25:32;;;;;;;6.17;5.10;;;;;;;;;;5073515;28;20444;-69
2023/09/08 12:27:59;;;;;;;5.80;4.60;;;;;;;;;;5072442;28;20248;-68
2023/09/08 12:30:29;;;;;;;5.10;4.47;;;;;;;;;;5073051;28;20476;-68
2023/09/08 12:32:57;;;;;;;6.53;4.67;;;;;;;;;;5073039;28;20214;-69
2023/09/08 12:35:26;;;;;;;6.50;4.47;;;;;;;;;;5072413;28;20305;-68
2023/09/08 12:37:55;;;;;;;5.30;4.37;;;;;;;;;;5073082;28;20582;-68
2023/09/08 12:40:22;;;;;;;4.87;4.13;;;;;;;;;;5073490;28;20230;-68
2023/09/08 12:42:49;;;;;;;6.80;4.17;;;;;;;;;;5072868;28;20250;-69
2023/09/08 12:45:19;;;;;;;5.40;4.10;;;;;;;;;;5073422;28;20202;-68
2023/09/08 12:47:46;;;;;;;4.97;4.10;;;;;;;;;;5073879;28;20206;-68
2023/09/08 12:50:14;;;;;;;4.80;4.10;;;;;;;;;;5073152;28;20210;-69
2023/09/08 12:52:42;;;;;;;4.73;3.80;;;;;;;;;;5072365;28;20265;-68
2023/09/08 12:55:09;;;;;;;4.40;3.70;;;;;;;;;;5072508;28;20915;-69
2023/09/08 12:57:37;;;;;;;5.97;3.97;;;;;;;;;;5073345;28;20230;-69
2023/09/08 13:00:05;;;;;;;4.70;4.20;;;;;;;;;;5073138;28;20207;-69
2023/09/08 13:02:32;;;;;;;4.50;4.07;;;;;;;;;;5072766;28;20233;-68
2023/09/08 13:04:59;;;;;;;3.80;3.50;;;;;;;;;;5072956;28;20582;-69
2023/09/08 13:07:26;;;;;;;4.67;3.97;;;;;;;;;;5070864;28;20817;-68
2023/09/08 13:09:55;;;;;;;5.93;4.20;;;;;;;;;;5069848;28;20203;-68
2023/09/08 13:12:22;;;;;;;5.60;3.83;;;;;;;;;;5072118;28;20310;-69
2023/09/08 13:14:49;;;;;;;5.33;4.33;;;;;;;;;;5072454;28;20203;-69
2023/09/08 13:17:16;;;;;;;5.33;4.80;;;;;;;;;;5072431;28;20248;-68
2023/09/08 13:19:43;;;;;;;5.83;4.20;;;;;;;;;;5072579;28;20759;-68
2023/09/08 13:22:10;;;;;;;4.50;3.80;;;;;;;;;;5072110;28;20590;-69
2023/09/08 13:24:37;;;;;;;4.57;4.00;;;;;;;;;;5072357;28;20214;-68
2023/09/08 13:27:06;;;;;;;5.03;4.17;;;;;;;;;;5071435;28;20217;-68
2023/09/08 13:29:33;;;;;;;4.23;3.80;;;;;;;;;;5072139;28;20203;-70
2023/09/08 13:32:00;;;;;;;4.03;3.63;;;;;;;;;;5058283;28;20233;-68
2023/09/08 13:34:27;;;;;;;5.10;4.07;;;;;;;;;;5069036;28;20209;-68
2023/09/08 13:36:54;;;;;;;4.93;3.78;;;;;;;;;;5072092;28;20229;-69
2023/09/08 13:39:21;;;;;;;6.05;3.90;;;;;;;;;;5072121;28;20676;-68
2023/09/08 13:41:49;;;;;;;6.38;4.63;;;;;;;;;;5072099;28;20226;-68
2023/09/08 13:44:18;;;;;;;6.90;4.13;;;;;;;;;;5071333;28;20202;-66
2023/09/08 13:46:45;;;;;;;5.80;4.13;;;;;;;;;;5071397;28;20297;-68
2023/09/08 13:49:12;;;;;;;4.40;3.37;;;;;;;;;;5062910;28;20203;-67
2023/09/08 13:51:40;;;;;;;5.13;4.10;;;;;;;;;;5071047;28;20237;-67
2023/09/08 13:54:07;;;;;;;4.33;3.93;;;;;;;;;;5071421;28;20210;-69
2023/09/08 13:56:34;;;;;;;5.47;4.38;;;;;;;;;;5071818;28;20252;-67
2023/09/08 13:59:01;;;;;;;6.43;3.90;;;;;;;;;;5071959;28;20199;-68
2023/09/08 14:01:31;;;;;;;4.87;4.37;;;;;;;;;;5071232;28;20296;-67
2023/09/08 14:04:00;;;;;;;6.73;4.17;;;;;;;;;;5070661;28;20226;-67
2023/09/08 14:06:27;;;;;;;6.07;4.60;;;;;;;;;;5071232;28;20203;-67
2023/09/08 14:08:54;;;;;;;4.25;3.83;;;;;;;;;;5070988;28;20199;-67
2023/09/08 14:11:22;;;;;;;4.68;3.75;;;;;;;;;;5071122;28;20222;-68
2023/09/08 14:13:49;;;;;;;5.30;3.77;;;;;;;;;;5071168;28;20218;-68
2023/09/08 14:16:16;;;;;;;6.32;4.28;;;;;;;;;;5071436;28;20242;-68
2023/09/08 14:18:45;;;;;;;5.57;3.53;;;;;;;;;;5070856;28;20699;-68
2023/09/08 14:21:12;;;;;;;4.82;3.58;;;;;;;;;;5069972;28;20203;-68
2023/09/08 14:23:40;;;;;;;5.32;4.63;;;;;;;;;;5070808;28;20341;-66
2023/09/08 14:26:07;;;;;;;4.28;3.88;;;;;;;;;;5070378;28;20211;-67
2023/09/08 14:28:34;;;;;;;5.25;3.22;;;;;;;;;;5070772;28;20203;-68
2023/09/08 14:31:01;;;;;;;4.10;3.47;;;;;;;;;;5069155;28;20203;-68
2023/09/08 14:33:28;;;;;;;4.63;3.53;;;;;;;;;;5070518;28;20661;-68
2023/09/08 14:35:57;;;;;;;4.20;3.53;;;;;;;;;;5071034;28;20260;-67
2023/09/08 14:38:24;;;;;;;5.82;4.53;;;;;;;;;;5070512;28;20207;-67
2023/09/08 14:40:58;;;;;;;4.07;3.45;;;;;;;;;;5070297;28;20202;-67
2023/09/08 14:43:25;;;;;;;5.82;4.13;;;;;;;;;;5070451;28;20630;-68